sensor_id;sensor_type;location;lat;lon;timestamp;temperature;humidity
2220;DHT22;1116;51.502;7.414;2024-03-07T00:02:06;7.60;55.90
2220;DHT22;1116;51.502;7.414;2024-03-07T00:04:36;7.50;55.40
2220;DHT22;1116;51.502;7.414;2024-03-07T00:07:07;7.60;55.80
2220;DHT22;1116;51.502;7.414;2024-03-07T00:09:39;7.50;55.20
2220;DHT22;1116;51.502;7.414;2024-03-07T00:12:09;7.50;55.90
2220;DHT22;1116;51.502;7.414;2024-03-07T00:14:39;7.50;55.30
2220;DHT22;1116;51.502;7.414;2024-03-07T00:17:10;8.30;56.20
2220;DHT22;1116;51.502;7.414;2024-03-07T00:19:40;7.50;56.40
2220;DHT22;1116;51.502;7.414;2024-03-07T00:22:10;7.50;55.30
2220;DHT22;1116;51.502;7.414;2024-03-07T00:24:44;7.60;55.90
2220;DHT22;1116;51.502;7.414;2024-03-07T00:27:14;7.50;55.50
2220;DHT22;1116;51.502;7.414;2024-03-07T00:29:46;7.50;55.70
2220;DHT22;1116;51.502;7.414;2024-03-07T00:32:20;7.40;54.80
2220;DHT22;1116;51.502;7.414;2024-03-07T00:34:50;7.40;56.00
2220;DHT22;1116;51.502;7.414;2024-03-07T00:37:20;7.30;55.30
2220;DHT22;1116;51.502;7.414;2024-03-07T00:39:54;7.20;55.00
2220;DHT22;1116;51.502;7.414;2024-03-07T00:42:24;7.20;55.60
2220;DHT22;1116;51.502;7.414;2024-03-07T00:44:54;7.10;55.90
2220;DHT22;1116;51.502;7.414;2024-03-07T00:47:25;7.20;55.40
2220;DHT22;1116;51.502;7.414;2024-03-07T00:49:55;7.10;53.90
2220;DHT22;1116;51.502;7.414;2024-03-07T00:52:25;7.10;54.80
2220;DHT22;1116;51.502;7.414;2024-03-07T00:54:57;7.00;54.20
2220;DHT22;1116;51.502;7.414;2024-03-07T00:57:28;7.10;54.80
2220;DHT22;1116;51.502;7.414;2024-03-07T00:59:58;7.10;55.50
2220;DHT22;1116;51.502;7.414;2024-03-07T01:02:28;7.00;56.10
2220;DHT22;1116;51.502;7.414;2024-03-07T01:04:58;7.00;55.20
2220;DHT22;1116;51.502;7.414;2024-03-07T01:07:34;7.00;56.00
2220;DHT22;1116;51.502;7.414;2024-03-07T01:10:08;7.00;54.60
2220;DHT22;1116;51.502;7.414;2024-03-07T01:12:38;7.00;55.50
2220;DHT22;1116;51.502;7.414;2024-03-07T01:15:10;7.00;54.80
2220;DHT22;1116;51.502;7.414;2024-03-07T01:17:42;6.90;55.60
2220;DHT22;1116;51.502;7.414;2024-03-07T01:20:12;6.90;55.50
2220;DHT22;1116;51.502;7.414;2024-03-07T01:22:42;6.90;55.50
2220;DHT22;1116;51.502;7.414;2024-03-07T01:25:15;6.90;57.20
2220;DHT22;1116;51.502;7.414;2024-03-07T01:27:45;6.80;54.50
2220;DHT22;1116;51.502;7.414;2024-03-07T01:30:16;6.80;56.10
2220;DHT22;1116;51.502;7.414;2024-03-07T01:32:43;6.80;56.20
2220;DHT22;1116;51.502;7.414;2024-03-07T01:35:14;6.80;55.80
2220;DHT22;1116;51.502;7.414;2024-03-07T01:37:44;6.80;55.30
2220;DHT22;1116;51.502;7.414;2024-03-07T01:40:16;6.80;55.30
2220;DHT22;1116;51.502;7.414;2024-03-07T01:42:48;6.90;54.80
2220;DHT22;1116;51.502;7.414;2024-03-07T01:45:18;6.80;53.70
2220;DHT22;1116;51.502;7.414;2024-03-07T01:47:48;6.70;56.80
2220;DHT22;1116;51.502;7.414;2024-03-07T01:50:19;6.80;55.60
2220;DHT22;1116;51.502;7.414;2024-03-07T01:52:49;6.70;55.30
2220;DHT22;1116;51.502;7.414;2024-03-07T01:55:25;6.80;55.70
2220;DHT22;1116;51.502;7.414;2024-03-07T01:57:57;6.80;55.10
2220;DHT22;1116;51.502;7.414;2024-03-07T02:00:28;8.70;57.00
2220;DHT22;1116;51.502;7.414;2024-03-07T02:02:59;6.70;55.00
2220;DHT22;1116;51.502;7.414;2024-03-07T02:05:29;6.60;55.20
2220;DHT22;1116;51.502;7.414;2024-03-07T02:07:59;6.60;53.90
2220;DHT22;1116;51.502;7.414;2024-03-07T02:10:32;6.70;54.70
2220;DHT22;1116;51.502;7.414;2024-03-07T02:13:02;6.60;55.00
2220;DHT22;1116;51.502;7.414;2024-03-07T02:15:32;6.60;55.10
2220;DHT22;1116;51.502;7.414;2024-03-07T02:18:03;6.50;55.80
2220;DHT22;1116;51.502;7.414;2024-03-07T02:20:33;6.60;55.80
2220;DHT22;1116;51.502;7.414;2024-03-07T02:23:06;6.50;55.40
2220;DHT22;1116;51.502;7.414;2024-03-07T02:25:36;6.60;56.10
2220;DHT22;1116;51.502;7.414;2024-03-07T02:28:07;6.50;55.70
2220;DHT22;1116;51.502;7.414;2024-03-07T02:30:37;6.50;55.30
2220;DHT22;1116;51.502;7.414;2024-03-07T02:33:07;6.60;55.40
2220;DHT22;1116;51.502;7.414;2024-03-07T02:35:39;6.60;54.80
2220;DHT22;1116;51.502;7.414;2024-03-07T02:38:11;6.60;56.40
2220;DHT22;1116;51.502;7.414;2024-03-07T02:40:41;6.50;56.10
2220;DHT22;1116;51.502;7.414;2024-03-07T02:43:12;6.60;56.20
2220;DHT22;1116;51.502;7.414;2024-03-07T02:45:42;6.50;55.50
2220;DHT22;1116;51.502;7.414;2024-03-07T02:48:13;6.50;56.50
2220;DHT22;1116;51.502;7.414;2024-03-07T02:50:46;6.50;56.50
2220;DHT22;1116;51.502;7.414;2024-03-07T02:53:19;6.60;56.10
2220;DHT22;1116;51.502;7.414;2024-03-07T02:55:49;6.60;57.60
2220;DHT22;1116;51.502;7.414;2024-03-07T02:58:19;6.50;55.60
2220;DHT22;1116;51.502;7.414;2024-03-07T03:00:49;6.50;56.20
2220;DHT22;1116;51.502;7.414;2024-03-07T03:03:26;6.60;56.80
2220;DHT22;1116;51.502;7.414;2024-03-07T03:05:58;6.60;55.40
2220;DHT22;1116;51.502;7.414;2024-03-07T03:08:31;6.60;55.70
2220;DHT22;1116;51.502;7.414;2024-03-07T03:11:02;6.50;55.50
2220;DHT22;1116;51.502;7.414;2024-03-07T03:13:34;6.50;55.60
2220;DHT22;1116;51.502;7.414;2024-03-07T03:16:05;6.50;56.20
2220;DHT22;1116;51.502;7.414;2024-03-07T03:18:36;6.50;56.00
2220;DHT22;1116;51.502;7.414;2024-03-07T03:21:06;6.40;56.30
2220;DHT22;1116;51.502;7.414;2024-03-07T03:23:39;6.40;55.80
2220;DHT22;1116;51.502;7.414;2024-03-07T03:26:09;6.40;56.40
2220;DHT22;1116;51.502;7.414;2024-03-07T03:28:41;6.40;56.90
2220;DHT22;1116;51.502;7.414;2024-03-07T03:31:11;6.30;55.20
2220;DHT22;1116;51.502;7.414;2024-03-07T03:33:41;6.30;56.90
2220;DHT22;1116;51.502;7.414;2024-03-07T03:36:12;6.40;55.90
2220;DHT22;1116;51.502;7.414;2024-03-07T03:38:45;6.20;55.70
2220;DHT22;1116;51.502;7.414;2024-03-07T03:41:15;6.20;54.80
2220;DHT22;1116;51.502;7.414;2024-03-07T03:43:46;6.20;56.00
2220;DHT22;1116;51.502;7.414;2024-03-07T03:46:16;6.00;55.20
2220;DHT22;1116;51.502;7.414;2024-03-07T03:48:46;6.10;55.80
2220;DHT22;1116;51.502;7.414;2024-03-07T03:51:17;6.00;55.80
2220;DHT22;1116;51.502;7.414;2024-03-07T03:53:51;6.10;55.80
2220;DHT22;1116;51.502;7.414;2024-03-07T03:56:21;6.10;56.10
2220;DHT22;1116;51.502;7.414;2024-03-07T03:58:52;6.20;56.30
2220;DHT22;1116;51.502;7.414;2024-03-07T04:01:22;6.20;55.10
2220;DHT22;1116;51.502;7.414;2024-03-07T04:03:52;6.20;56.40
2220;DHT22;1116;51.502;7.414;2024-03-07T04:06:22;6.10;56.30
2220;DHT22;1116;51.502;7.414;2024-03-07T04:08:55;6.10;57.20
2220;DHT22;1116;51.502;7.414;2024-03-07T04:11:25;6.10;57.50
2220;DHT22;1116;51.502;7.414;2024-03-07T04:13:56;6.00;57.40
2220;DHT22;1116;51.502;7.414;2024-03-07T04:16:26;6.10;57.80
2220;DHT22;1116;51.502;7.414;2024-03-07T04:18:56;6.10;57.50
2220;DHT22;1116;51.502;7.414;2024-03-07T04:21:26;6.20;57.00
2220;DHT22;1116;51.502;7.414;2024-03-07T04:23:59;6.10;57.30
2220;DHT22;1116;51.502;7.414;2024-03-07T04:26:29;6.10;56.80
2220;DHT22;1116;51.502;7.414;2024-03-07T04:28:59;6.20;56.80
2220;DHT22;1116;51.502;7.414;2024-03-07T04:31:29;6.20;56.60
2220;DHT22;1116;51.502;7.414;2024-03-07T04:34:00;6.20;55.80
2220;DHT22;1116;51.502;7.414;2024-03-07T04:36:30;6.10;56.20
2220;DHT22;1116;51.502;7.414;2024-03-07T04:39:04;6.10;55.70
2220;DHT22;1116;51.502;7.414;2024-03-07T04:41:41;6.10;56.20
2220;DHT22;1116;51.502;7.414;2024-03-07T04:44:11;6.10;55.20
2220;DHT22;1116;51.502;7.414;2024-03-07T04:46:42;6.00;55.60
2220;DHT22;1116;51.502;7.414;2024-03-07T04:49:12;5.90;56.90
2220;DHT22;1116;51.502;7.414;2024-03-07T04:51:42;5.90;57.00
2220;DHT22;1116;51.502;7.414;2024-03-07T04:54:15;6.00;56.80
2220;DHT22;1116;51.502;7.414;2024-03-07T04:56:45;6.00;55.30
2220;DHT22;1116;51.502;7.414;2024-03-07T04:59:16;5.80;55.80
2220;DHT22;1116;51.502;7.414;2024-03-07T05:01:47;5.90;56.10
2220;DHT22;1116;51.502;7.414;2024-03-07T05:04:18;6.00;55.70
2220;DHT22;1116;51.502;7.414;2024-03-07T05:06:51;5.90;55.40
2220;DHT22;1116;51.502;7.414;2024-03-07T05:09:24;5.90;55.90
2220;DHT22;1116;51.502;7.414;2024-03-07T05:11:56;5.80;55.80
2220;DHT22;1116;51.502;7.414;2024-03-07T05:14:26;5.90;56.40
2220;DHT22;1116;51.502;7.414;2024-03-07T05:16:57;6.00;55.60
2220;DHT22;1116;51.502;7.414;2024-03-07T05:19:36;5.90;55.40
2220;DHT22;1116;51.502;7.414;2024-03-07T05:22:06;5.90;55.70
2220;DHT22;1116;51.502;7.414;2024-03-07T05:24:43;5.80;55.80
2220;DHT22;1116;51.502;7.414;2024-03-07T05:27:13;5.80;54.70
2220;DHT22;1116;51.502;7.414;2024-03-07T05:29:43;5.80;55.20
2220;DHT22;1116;51.502;7.414;2024-03-07T05:32:21;5.80;55.60
2220;DHT22;1116;51.502;7.414;2024-03-07T05:34:53;5.90;55.30
2220;DHT22;1116;51.502;7.414;2024-03-07T05:37:23;5.80;55.40
2220;DHT22;1116;51.502;7.414;2024-03-07T05:39:56;5.90;55.20
2220;DHT22;1116;51.502;7.414;2024-03-07T05:42:27;5.90;55.10
2220;DHT22;1116;51.502;7.414;2024-03-07T05:44:59;5.80;55.60
2220;DHT22;1116;51.502;7.414;2024-03-07T05:47:29;5.80;55.00
2220;DHT22;1116;51.502;7.414;2024-03-07T05:49:59;5.80;54.70
2220;DHT22;1116;51.502;7.414;2024-03-07T05:52:30;5.80;55.90
2220;DHT22;1116;51.502;7.414;2024-03-07T05:55:04;5.80;54.60
2220;DHT22;1116;51.502;7.414;2024-03-07T05:57:35;5.70;55.10
2220;DHT22;1116;51.502;7.414;2024-03-07T06:00:11;5.70;55.50
2220;DHT22;1116;51.502;7.414;2024-03-07T06:02:46;5.70;55.40
2220;DHT22;1116;51.502;7.414;2024-03-07T06:05:17;5.60;55.50
2220;DHT22;1116;51.502;7.414;2024-03-07T06:07:47;5.70;55.50
2220;DHT22;1116;51.502;7.414;2024-03-07T06:10:19;5.70;55.20
2220;DHT22;1116;51.502;7.414;2024-03-07T06:12:51;5.70;54.70
2220;DHT22;1116;51.502;7.414;2024-03-07T06:15:36;5.70;55.10
2220;DHT22;1116;51.502;7.414;2024-03-07T06:18:08;5.60;54.60
2220;DHT22;1116;51.502;7.414;2024-03-07T06:20:38;5.60;55.70
2220;DHT22;1116;51.502;7.414;2024-03-07T06:23:09;5.60;54.00
2220;DHT22;1116;51.502;7.414;2024-03-07T06:25:42;5.60;55.00
2220;DHT22;1116;51.502;7.414;2024-03-07T06:28:18;5.70;55.70
2220;DHT22;1116;51.502;7.414;2024-03-07T06:30:48;5.70;55.70
2220;DHT22;1116;51.502;7.414;2024-03-07T06:33:18;5.60;54.90
2220;DHT22;1116;51.502;7.414;2024-03-07T06:35:52;5.70;54.90
2220;DHT22;1116;51.502;7.414;2024-03-07T06:38:23;5.70;54.70
2220;DHT22;1116;51.502;7.414;2024-03-07T06:40:55;5.70;55.30
2220;DHT22;1116;51.502;7.414;2024-03-07T06:43:25;5.80;53.90
2220;DHT22;1116;51.502;7.414;2024-03-07T06:45:56;5.70;53.90
2220;DHT22;1116;51.502;7.414;2024-03-07T06:48:26;5.80;54.50
2220;DHT22;1116;51.502;7.414;2024-03-07T06:50:56;5.80;54.10
2220;DHT22;1116;51.502;7.414;2024-03-07T06:53:27;5.90;54.70
2220;DHT22;1116;51.502;7.414;2024-03-07T06:56:00;5.90;54.10
2220;DHT22;1116;51.502;7.414;2024-03-07T06:58:30;6.00;54.70
2220;DHT22;1116;51.502;7.414;2024-03-07T07:01:00;6.00;54.30
2220;DHT22;1116;51.502;7.414;2024-03-07T07:03:34;6.00;53.50
2220;DHT22;1116;51.502;7.414;2024-03-07T07:06:04;6.00;53.50
2220;DHT22;1116;51.502;7.414;2024-03-07T07:08:35;6.20;53.60
2220;DHT22;1116;51.502;7.414;2024-03-07T07:11:08;6.10;53.10
2220;DHT22;1116;51.502;7.414;2024-03-07T07:13:40;6.00;52.30
2220;DHT22;1116;51.502;7.414;2024-03-07T07:16:10;6.10;52.40
2220;DHT22;1116;51.502;7.414;2024-03-07T07:18:40;6.20;53.10
2220;DHT22;1116;51.502;7.414;2024-03-07T07:21:10;6.30;53.50
2220;DHT22;1116;51.502;7.414;2024-03-07T07:23:42;6.50;52.80
2220;DHT22;1116;51.502;7.414;2024-03-07T07:26:15;6.60;52.80
2220;DHT22;1116;51.502;7.414;2024-03-07T07:28:45;6.60;52.80
2220;DHT22;1116;51.502;7.414;2024-03-07T07:31:15;6.70;51.50
2220;DHT22;1116;51.502;7.414;2024-03-07T07:33:45;6.70;51.20
2220;DHT22;1116;51.502;7.414;2024-03-07T07:36:16;6.80;51.10
2220;DHT22;1116;51.502;7.414;2024-03-07T07:38:46;6.90;50.80
2220;DHT22;1116;51.502;7.414;2024-03-07T07:41:19;7.00;50.30
2220;DHT22;1116;51.502;7.414;2024-03-07T07:43:49;6.90;50.60
2220;DHT22;1116;51.502;7.414;2024-03-07T07:46:20;7.20;50.20
2220;DHT22;1116;51.502;7.414;2024-03-07T07:48:50;7.20;47.50
2220;DHT22;1116;51.502;7.414;2024-03-07T07:51:23;7.30;48.50
2220;DHT22;1116;51.502;7.414;2024-03-07T07:53:54;7.50;47.70
2220;DHT22;1116;51.502;7.414;2024-03-07T07:56:26;7.50;46.90
2220;DHT22;1116;51.502;7.414;2024-03-07T07:58:58;7.40;46.60
2220;DHT22;1116;51.502;7.414;2024-03-07T08:01:28;7.40;47.40
2220;DHT22;1116;51.502;7.414;2024-03-07T08:03:58;7.40;47.40
2220;DHT22;1116;51.502;7.414;2024-03-07T08:06:28;7.30;47.50
2220;DHT22;1116;51.502;7.414;2024-03-07T08:08:58;7.70;47.60
2220;DHT22;1116;51.502;7.414;2024-03-07T08:11:31;7.70;46.70
2220;DHT22;1116;51.502;7.414;2024-03-07T08:14:01;7.30;47.80
2220;DHT22;1116;51.502;7.414;2024-03-07T08:16:31;7.80;49.50
2220;DHT22;1116;51.502;7.414;2024-03-07T08:19:04;7.20;49.00
2220;DHT22;1116;51.502;7.414;2024-03-07T08:21:35;7.10;49.00
2220;DHT22;1116;51.502;7.414;2024-03-07T08:24:06;7.20;49.20
2220;DHT22;1116;51.502;7.414;2024-03-07T08:26:40;7.30;47.50
2220;DHT22;1116;51.502;7.414;2024-03-07T08:29:11;7.20;46.60
2220;DHT22;1116;51.502;7.414;2024-03-07T08:31:41;7.10;47.30
2220;DHT22;1116;51.502;7.414;2024-03-07T08:34:11;7.20;48.10
2220;DHT22;1116;51.502;7.414;2024-03-07T08:36:41;7.20;46.50
2220;DHT22;1116;51.502;7.414;2024-03-07T08:39:14;7.30;47.50
2220;DHT22;1116;51.502;7.414;2024-03-07T08:41:48;7.40;47.30
2220;DHT22;1116;51.502;7.414;2024-03-07T08:44:19;7.60;47.20
2220;DHT22;1116;51.502;7.414;2024-03-07T08:46:50;7.70;47.40
2220;DHT22;1116;51.502;7.414;2024-03-07T08:49:20;7.80;47.20
2220;DHT22;1116;51.502;7.414;2024-03-07T08:51:50;8.00;47.40
2220;DHT22;1116;51.502;7.414;2024-03-07T08:54:20;7.90;46.50
2220;DHT22;1116;51.502;7.414;2024-03-07T08:56:53;8.00;46.70
2220;DHT22;1116;51.502;7.414;2024-03-07T08:59:23;8.00;45.30
2220;DHT22;1116;51.502;7.414;2024-03-07T09:01:53;8.10;45.00
2220;DHT22;1116;51.502;7.414;2024-03-07T09:04:23;8.60;46.50
2220;DHT22;1116;51.502;7.414;2024-03-07T09:06:53;8.40;45.50
2220;DHT22;1116;51.502;7.414;2024-03-07T09:09:23;8.40;43.40
2220;DHT22;1116;51.502;7.414;2024-03-07T09:11:56;8.20;42.30
2220;DHT22;1116;51.502;7.414;2024-03-07T09:14:28;8.20;44.10
2220;DHT22;1116;51.502;7.414;2024-03-07T09:16:58;8.60;45.20
2220;DHT22;1116;51.502;7.414;2024-03-07T09:19:29;8.90;42.90
2220;DHT22;1116;51.502;7.414;2024-03-07T09:21:59;9.30;43.30
2220;DHT22;1116;51.502;7.414;2024-03-07T09:24:30;9.50;42.10
2220;DHT22;1116;51.502;7.414;2024-03-07T09:27:04;9.40;40.70
2220;DHT22;1116;51.502;7.414;2024-03-07T09:29:35;9.60;40.20
2220;DHT22;1116;51.502;7.414;2024-03-07T09:32:05;9.50;40.90
2220;DHT22;1116;51.502;7.414;2024-03-07T09:34:36;9.50;41.40
2220;DHT22;1116;51.502;7.414;2024-03-07T09:37:06;9.50;40.50
2220;DHT22;1116;51.502;7.414;2024-03-07T09:39:37;9.40;39.90
2220;DHT22;1116;51.502;7.414;2024-03-07T09:42:10;9.50;39.90
2220;DHT22;1116;51.502;7.414;2024-03-07T09:44:42;9.60;39.50
2220;DHT22;1116;51.502;7.414;2024-03-07T09:47:14;9.50;38.60
2220;DHT22;1116;51.502;7.414;2024-03-07T09:49:46;9.60;39.80
2220;DHT22;1116;51.502;7.414;2024-03-07T09:52:16;9.80;39.90
2220;DHT22;1116;51.502;7.414;2024-03-07T09:54:47;10.00;37.80
2220;DHT22;1116;51.502;7.414;2024-03-07T09:57:20;10.20;35.70
2220;DHT22;1116;51.502;7.414;2024-03-07T09:59:52;10.10;36.40
2220;DHT22;1116;51.502;7.414;2024-03-07T10:02:24;9.80;34.90
2220;DHT22;1116;51.502;7.414;2024-03-07T10:04:55;10.10;37.50
2220;DHT22;1116;51.502;7.414;2024-03-07T10:07:26;10.30;35.80
2220;DHT22;1116;51.502;7.414;2024-03-07T10:09:57;10.10;35.50
2220;DHT22;1116;51.502;7.414;2024-03-07T10:12:30;10.30;36.20
2220;DHT22;1116;51.502;7.414;2024-03-07T10:15:03;10.50;35.80
2220;DHT22;1116;51.502;7.414;2024-03-07T10:17:37;10.60;35.70
2220;DHT22;1116;51.502;7.414;2024-03-07T10:20:12;10.60;35.20
2220;DHT22;1116;51.502;7.414;2024-03-07T10:22:43;10.60;33.30
2220;DHT22;1116;51.502;7.414;2024-03-07T10:25:13;10.80;35.00
2220;DHT22;1116;51.502;7.414;2024-03-07T10:27:47;10.60;34.30
2220;DHT22;1116;51.502;7.414;2024-03-07T10:30:18;10.40;33.20
2220;DHT22;1116;51.502;7.414;2024-03-07T10:32:52;10.20;33.60
2220;DHT22;1116;51.502;7.414;2024-03-07T10:35:28;10.40;34.30
2220;DHT22;1116;51.502;7.414;2024-03-07T10:37:59;10.50;34.60
2220;DHT22;1116;51.502;7.414;2024-03-07T10:40:34;10.30;33.80
2220;DHT22;1116;51.502;7.414;2024-03-07T10:43:12;10.50;34.60
2220;DHT22;1116;51.502;7.414;2024-03-07T10:45:45;10.80;34.00
2220;DHT22;1116;51.502;7.414;2024-03-07T10:48:19;10.90;33.20
2220;DHT22;1116;51.502;7.414;2024-03-07T10:50:58;10.80;33.00
2220;DHT22;1116;51.502;7.414;2024-03-07T10:53:39;10.90;33.90
2220;DHT22;1116;51.502;7.414;2024-03-07T10:56:21;11.10;31.50
2220;DHT22;1116;51.502;7.414;2024-03-07T10:59:06;11.10;31.60
2220;DHT22;1116;51.502;7.414;2024-03-07T11:01:46;11.40;33.90
2220;DHT22;1116;51.502;7.414;2024-03-07T11:04:22;11.80;33.90
2220;DHT22;1116;51.502;7.414;2024-03-07T11:06:53;11.70;31.60
2220;DHT22;1116;51.502;7.414;2024-03-07T11:09:26;11.80;32.10
2220;DHT22;1116;51.502;7.414;2024-03-07T11:12:01;12.00;32.30
2220;DHT22;1116;51.502;7.414;2024-03-07T11:14:37;12.20;29.30
2220;DHT22;1116;51.502;7.414;2024-03-07T11:17:08;12.20;30.90
2220;DHT22;1116;51.502;7.414;2024-03-07T11:19:40;12.00;29.80
2220;DHT22;1116;51.502;7.414;2024-03-07T11:22:28;11.40;31.60
2220;DHT22;1116;51.502;7.414;2024-03-07T11:25:05;11.50;31.00
2220;DHT22;1116;51.502;7.414;2024-03-07T11:27:38;11.70;31.60
2220;DHT22;1116;51.502;7.414;2024-03-07T11:30:13;11.70;32.00
2220;DHT22;1116;51.502;7.414;2024-03-07T11:32:43;12.10;32.70
2220;DHT22;1116;51.502;7.414;2024-03-07T11:35:16;12.30;32.70
2220;DHT22;1116;51.502;7.414;2024-03-07T11:37:56;12.40;31.40
2220;DHT22;1116;51.502;7.414;2024-03-07T11:40:46;12.30;30.00
2220;DHT22;1116;51.502;7.414;2024-03-07T11:43:18;13.40;31.30
2220;DHT22;1116;51.502;7.414;2024-03-07T11:45:51;12.90;32.30
2220;DHT22;1116;51.502;7.414;2024-03-07T11:48:24;13.90;28.50
2220;DHT22;1116;51.502;7.414;2024-03-07T11:50:55;14.90;25.00
2220;DHT22;1116;51.502;7.414;2024-03-07T11:53:25;15.40;25.40
2220;DHT22;1116;51.502;7.414;2024-03-07T11:55:55;15.00;24.70
2220;DHT22;1116;51.502;7.414;2024-03-07T11:58:25;14.70;27.00
2220;DHT22;1116;51.502;7.414;2024-03-07T12:01:05;14.60;25.90
2220;DHT22;1116;51.502;7.414;2024-03-07T12:03:38;14.10;25.60
2220;DHT22;1116;51.502;7.414;2024-03-07T12:06:08;14.00;26.00
2220;DHT22;1116;51.502;7.414;2024-03-07T12:08:40;14.00;26.70
2220;DHT22;1116;51.502;7.414;2024-03-07T12:11:10;14.20;25.50
2220;DHT22;1116;51.502;7.414;2024-03-07T12:13:43;13.80;24.30
2220;DHT22;1116;51.502;7.414;2024-03-07T12:16:17;13.70;26.70
2220;DHT22;1116;51.502;7.414;2024-03-07T12:18:47;14.00;26.90
2220;DHT22;1116;51.502;7.414;2024-03-07T12:21:17;13.90;27.40
2220;DHT22;1116;51.502;7.414;2024-03-07T12:23:47;13.90;27.00
2220;DHT22;1116;51.502;7.414;2024-03-07T12:26:20;13.40;26.60
2220;DHT22;1116;51.502;7.414;2024-03-07T12:28:53;13.00;27.80
2220;DHT22;1116;51.502;7.414;2024-03-07T12:31:26;12.90;28.20
2220;DHT22;1116;51.502;7.414;2024-03-07T12:33:58;12.70;27.50
2220;DHT22;1116;51.502;7.414;2024-03-07T12:36:29;12.60;28.60
2220;DHT22;1116;51.502;7.414;2024-03-07T12:39:01;12.60;28.90
2220;DHT22;1116;51.502;7.414;2024-03-07T12:41:51;12.80;28.40
2220;DHT22;1116;51.502;7.414;2024-03-07T12:44:22;12.60;28.70
2220;DHT22;1116;51.502;7.414;2024-03-07T12:46:55;12.70;28.40
2220;DHT22;1116;51.502;7.414;2024-03-07T12:49:26;12.80;27.60
2220;DHT22;1116;51.502;7.414;2024-03-07T12:51:57;12.90;29.10
2220;DHT22;1116;51.502;7.414;2024-03-07T12:54:27;12.70;27.50
2220;DHT22;1116;51.502;7.414;2024-03-07T12:56:57;13.00;27.30
2220;DHT22;1116;51.502;7.414;2024-03-07T12:59:27;13.90;27.10
2220;DHT22;1116;51.502;7.414;2024-03-07T13:02:00;14.20;24.60
2220;DHT22;1116;51.502;7.414;2024-03-07T13:04:30;13.90;27.00
2220;DHT22;1116;51.502;7.414;2024-03-07T13:07:00;13.40;24.30
2220;DHT22;1116;51.502;7.414;2024-03-07T13:09:31;13.30;27.80
2220;DHT22;1116;51.502;7.414;2024-03-07T13:12:02;13.50;27.50
2220;DHT22;1116;51.502;7.414;2024-03-07T13:14:37;13.90;25.30
2220;DHT22;1116;51.502;7.414;2024-03-07T13:17:09;13.50;25.30
2220;DHT22;1116;51.502;7.414;2024-03-07T13:19:41;13.30;26.10
2220;DHT22;1116;51.502;7.414;2024-03-07T13:22:16;13.00;24.40
2220;DHT22;1116;51.502;7.414;2024-03-07T13:24:46;12.80;26.20
2220;DHT22;1116;51.502;7.414;2024-03-07T13:27:17;12.80;26.30
2220;DHT22;1116;51.502;7.414;2024-03-07T13:29:55;12.60;25.80
2220;DHT22;1116;51.502;7.414;2024-03-07T13:32:27;12.50;26.60
2220;DHT22;1116;51.502;7.414;2024-03-07T13:34:58;12.60;27.20
2220;DHT22;1116;51.502;7.414;2024-03-07T13:37:28;12.20;26.20
2220;DHT22;1116;51.502;7.414;2024-03-07T13:40:01;11.90;26.80
2220;DHT22;1116;51.502;7.414;2024-03-07T13:42:51;11.30;26.50
2220;DHT22;1116;51.502;7.414;2024-03-07T13:45:24;14.20;21.50
2220;DHT22;1116;51.502;7.414;2024-03-07T13:47:59;14.30;23.70
2220;DHT22;1116;51.502;7.414;2024-03-07T13:50:32;15.00;20.30
2220;DHT22;1116;51.502;7.414;2024-03-07T13:53:23;14.50;19.60
2220;DHT22;1116;51.502;7.414;2024-03-07T13:56:33;13.90;20.80
2220;DHT22;1116;51.502;7.414;2024-03-07T14:02:44;12.40;22.40
2220;DHT22;1116;51.502;7.414;2024-03-07T14:05:55;12.00;24.50
2220;DHT22;1116;51.502;7.414;2024-03-07T14:12:09;13.00;22.70
2220;DHT22;1116;51.502;7.414;2024-03-07T14:21:49;12.50;21.50
2220;DHT22;1116;51.502;7.414;2024-03-07T14:30:51;12.00;22.10
2220;DHT22;1116;51.502;7.414;2024-03-07T14:33:27;12.10;23.60
2220;DHT22;1116;51.502;7.414;2024-03-07T14:36:02;12.10;23.10
2220;DHT22;1116;51.502;7.414;2024-03-07T14:38:46;12.00;23.80
2220;DHT22;1116;51.502;7.414;2024-03-07T14:41:20;11.90;23.90
2220;DHT22;1116;51.502;7.414;2024-03-07T14:43:54;11.90;24.40
2220;DHT22;1116;51.502;7.414;2024-03-07T14:46:24;12.10;24.40
2220;DHT22;1116;51.502;7.414;2024-03-07T14:48:54;12.10;26.20
2220;DHT22;1116;51.502;7.414;2024-03-07T14:51:24;12.20;27.10
2220;DHT22;1116;51.502;7.414;2024-03-07T14:53:57;12.10;25.10
2220;DHT22;1116;51.502;7.414;2024-03-07T14:56:28;12.10;26.10
2220;DHT22;1116;51.502;7.414;2024-03-07T14:58:58;12.10;26.50
2220;DHT22;1116;51.502;7.414;2024-03-07T15:01:29;12.00;25.90
2220;DHT22;1116;51.502;7.414;2024-03-07T15:04:01;11.90;27.00
2220;DHT22;1116;51.502;7.414;2024-03-07T15:06:38;11.70;27.80
2220;DHT22;1116;51.502;7.414;2024-03-07T15:09:12;11.60;29.20
2220;DHT22;1116;51.502;7.414;2024-03-07T15:11:43;11.60;28.60
2220;DHT22;1116;51.502;7.414;2024-03-07T15:14:13;11.30;29.50
2220;DHT22;1116;51.502;7.414;2024-03-07T15:16:55;11.20;28.60
2220;DHT22;1116;51.502;7.414;2024-03-07T15:19:25;11.10;29.20
2220;DHT22;1116;51.502;7.414;2024-03-07T15:21:57;11.00;29.90
2220;DHT22;1116;51.502;7.414;2024-03-07T15:24:30;11.20;31.00
2220;DHT22;1116;51.502;7.414;2024-03-07T15:27:02;11.20;30.70
2220;DHT22;1116;51.502;7.414;2024-03-07T15:29:33;11.30;28.90
2220;DHT22;1116;51.502;7.414;2024-03-07T15:32:05;11.20;29.30
2220;DHT22;1116;51.502;7.414;2024-03-07T15:34:37;11.10;29.50
2220;DHT22;1116;51.502;7.414;2024-03-07T15:37:08;11.20;29.40
2220;DHT22;1116;51.502;7.414;2024-03-07T15:39:44;11.40;29.70
2220;DHT22;1116;51.502;7.414;2024-03-07T15:42:14;11.30;30.00
2220;DHT22;1116;51.502;7.414;2024-03-07T15:44:45;11.30;29.60
2220;DHT22;1116;51.502;7.414;2024-03-07T15:47:15;11.30;29.10
2220;DHT22;1116;51.502;7.414;2024-03-07T15:49:49;11.40;30.00
2220;DHT22;1116;51.502;7.414;2024-03-07T15:52:20;11.50;29.00
2220;DHT22;1116;51.502;7.414;2024-03-07T15:54:54;11.50;28.50
2220;DHT22;1116;51.502;7.414;2024-03-07T15:57:24;11.50;28.50
2220;DHT22;1116;51.502;7.414;2024-03-07T15:59:54;11.60;29.20
2220;DHT22;1116;51.502;7.414;2024-03-07T16:02:24;11.70;29.30
2220;DHT22;1116;51.502;7.414;2024-03-07T16:04:54;11.70;29.30
2220;DHT22;1116;51.502;7.414;2024-03-07T16:07:24;11.60;27.90
2220;DHT22;1116;51.502;7.414;2024-03-07T16:09:57;11.30;28.90
2220;DHT22;1116;51.502;7.414;2024-03-07T16:12:27;11.10;28.10
2220;DHT22;1116;51.502;7.414;2024-03-07T16:15:00;11.00;28.80
2220;DHT22;1116;51.502;7.414;2024-03-07T16:17:30;10.80;29.90
2220;DHT22;1116;51.502;7.414;2024-03-07T16:20:00;10.70;30.20
2220;DHT22;1116;51.502;7.414;2024-03-07T16:22:30;10.40;29.40
2220;DHT22;1116;51.502;7.414;2024-03-07T16:25:04;10.70;28.60
2220;DHT22;1116;51.502;7.414;2024-03-07T16:27:36;10.70;30.00
2220;DHT22;1116;51.502;7.414;2024-03-07T16:30:12;10.70;28.80
2220;DHT22;1116;51.502;7.414;2024-03-07T16:32:46;10.70;28.70
2220;DHT22;1116;51.502;7.414;2024-03-07T16:35:17;10.60;28.40
2220;DHT22;1116;51.502;7.414;2024-03-07T16:37:49;10.70;31.10
2220;DHT22;1116;51.502;7.414;2024-03-07T16:40:23;10.70;29.50
2220;DHT22;1116;51.502;7.414;2024-03-07T16:42:57;10.60;29.70
2220;DHT22;1116;51.502;7.414;2024-03-07T16:45:29;10.60;29.60
2220;DHT22;1116;51.502;7.414;2024-03-07T16:48:01;10.70;30.30
2220;DHT22;1116;51.502;7.414;2024-03-07T16:50:38;10.70;31.10
2220;DHT22;1116;51.502;7.414;2024-03-07T16:53:10;10.60;30.00
2220;DHT22;1116;51.502;7.414;2024-03-07T16:55:46;10.50;29.70
2220;DHT22;1116;51.502;7.414;2024-03-07T16:58:16;10.40;30.80
2220;DHT22;1116;51.502;7.414;2024-03-07T17:00:46;10.40;30.00
2220;DHT22;1116;51.502;7.414;2024-03-07T17:03:19;10.40;30.80
2220;DHT22;1116;51.502;7.414;2024-03-07T17:05:49;10.30;30.70